createdAt,value
2018-07-20T00:01:47.361Z,100912.87
2018-07-20T00:04:17.019Z,100905.44
2018-07-20T00:06:46.727Z,100905.94
2018-07-20T00:09:16.448Z,100904.23
2018-07-20T00:11:46.264Z,100905.23
2018-07-20T00:14:15.932Z,100903.14
2018-07-20T00:16:45.700Z,100903.20
2018-07-20T00:19:15.286Z,100902.36
2018-07-20T00:21:44.974Z,100899.36
2018-07-20T00:24:14.627Z,100899.44
2018-07-20T00:26:44.303Z,100901.30
2018-07-20T00:29:13.952Z,100895.20
2018-07-20T00:31:43.741Z,100889.58
2018-07-20T00:34:13.504Z,100883.48
2018-07-20T00:36:43.172Z,100890.06
2018-07-20T00:39:13.032Z,100888.25
2018-07-20T00:41:42.696Z,100892.27
2018-07-20T00:44:12.500Z,100891.37
2018-07-20T00:46:42.170Z,100894.03
2018-07-20T00:49:11.834Z,100889.70
2018-07-20T00:51:41.558Z,100882.67
2018-07-20T00:54:11.205Z,100883.94
2018-07-20T00:56:40.982Z,100883.08
2018-07-20T00:59:10.697Z,100879.70
2018-07-20T01:01:40.364Z,100884.47
2018-07-20T01:04:09.723Z,100881.00
2018-07-20T01:06:39.484Z,100884.13
2018-07-20T01:09:10.609Z,100874.99
2018-07-20T01:11:40.880Z,100885.96
2018-07-20T01:14:10.624Z,100878.58
2018-07-20T01:16:40.393Z,100877.16
2018-07-20T01:19:10.114Z,100873.66
2018-07-20T01:21:39.899Z,100875.48
2018-07-20T01:24:09.562Z,100874.21
2018-07-20T01:26:39.178Z,100876.02
2018-07-20T01:29:08.975Z,100875.98
2018-07-20T01:31:38.618Z,100878.22
2018-07-20T01:34:08.314Z,100879.96
2018-07-20T01:36:37.970Z,100879.11
2018-07-20T01:39:08.898Z,100877.80
2018-07-20T01:41:38.933Z,100874.81
2018-07-20T01:44:09.542Z,100875.71
2018-07-20T01:46:39.481Z,100879.68
2018-07-20T01:49:09.120Z,100876.66
2018-07-20T01:51:38.836Z,100874.49
2018-07-20T01:54:08.757Z,100872.77
2018-07-20T01:56:38.532Z,100876.33
2018-07-20T01:59:08.174Z,100873.27
2018-07-20T02:01:37.860Z,100871.55
2018-07-20T02:04:08.208Z,100875.01
2018-07-20T02:06:37.937Z,100877.17
2018-07-20T02:09:10.677Z,100877.59
2018-07-20T02:11:40.429Z,100872.84
2018-07-20T02:14:10.250Z,100864.98
2018-07-20T02:16:39.942Z,100874.16
2018-07-20T02:19:09.690Z,100873.28
2018-07-20T02:21:39.358Z,100877.66
2018-07-20T02:24:09.050Z,100872.44
2018-07-20T02:26:38.702Z,100867.67
2018-07-20T02:29:08.357Z,100870.74
2018-07-20T02:31:38.037Z,100863.74
2018-07-20T02:34:08.233Z,100866.36
2018-07-20T02:36:38.080Z,100870.66
2018-07-20T02:39:11.928Z,100865.86
2018-07-20T02:41:42.202Z,100868.07
2018-07-20T02:44:12.429Z,100860.24
2018-07-20T02:46:42.094Z,100864.64
2018-07-20T02:49:11.885Z,100865.51
2018-07-20T02:51:41.662Z,100859.42
2018-07-20T02:54:11.338Z,100855.92
2018-07-20T02:56:41.133Z,100859.44
2018-07-20T02:59:10.813Z,100867.27
2018-07-20T03:01:40.503Z,100861.16
2018-07-20T03:04:10.209Z,100862.94
2018-07-20T03:06:39.941Z,100859.02
2018-07-20T03:09:12.306Z,100869.47
2018-07-20T03:11:43.125Z,100863.78
2018-07-20T03:14:12.884Z,100857.27
2018-07-20T03:16:42.545Z,100861.61
2018-07-20T03:19:19.037Z,100862.05
2018-07-20T03:21:48.685Z,100864.66
2018-07-20T03:24:18.539Z,100858.14
2018-07-20T03:26:48.177Z,100862.47
2018-07-20T03:29:17.965Z,100864.67
2018-07-20T03:31:47.622Z,100861.61
2018-07-20T03:34:17.325Z,100861.61
2018-07-20T03:36:47.112Z,100863.78
2018-07-20T03:39:16.925Z,100864.67
2018-07-20T03:41:46.562Z,100869.90
2018-07-20T03:44:16.334Z,100863.81
2018-07-20T03:46:46.173Z,100861.63
2018-07-20T03:49:15.886Z,100856.82
2018-07-20T03:51:46.082Z,100855.94
2018-07-20T03:54:15.772Z,100855.53
2018-07-20T03:56:45.414Z,100842.89
2018-07-20T03:59:15.135Z,100846.78
2018-07-20T04:01:44.785Z,100840.25
2018-07-20T04:04:14.476Z,100840.25
2018-07-20T04:06:44.277Z,100838.07
2018-07-20T04:09:13.921Z,100840.23
2018-07-20T04:11:43.754Z,100840.65
2018-07-20T04:14:13.617Z,100838.88
2018-07-20T04:16:43.313Z,100830.98
2018-07-20T04:19:13.030Z,100827.02
2018-07-20T04:21:42.732Z,100832.26
2018-07-20T04:24:12.552Z,100831.41
2018-07-20T04:26:42.253Z,100830.53
2018-07-20T04:29:11.958Z,100830.52
2018-07-20T04:31:41.672Z,100826.16
2018-07-20T04:34:11.420Z,100823.55
2018-07-20T04:36:41.152Z,100825.77
2018-07-20T04:39:13.322Z,100825.33
2018-07-20T04:41:43.621Z,100821.39
2018-07-20T04:44:13.300Z,100818.77
2018-07-20T04:46:42.996Z,100818.34
2018-07-20T04:49:12.684Z,100817.03
2018-07-20T04:51:42.381Z,100821.82
2018-07-20T04:54:12.062Z,100817.47
2018-07-20T04:56:41.813Z,100817.02
2018-07-20T04:59:11.502Z,100820.05
2018-07-20T05:01:41.222Z,100816.58
2018-07-20T05:04:10.976Z,100823.08
2018-07-20T05:06:40.692Z,100825.22
2018-07-20T05:09:11.133Z,100828.69
2018-07-20T05:11:40.861Z,100829.56
2018-07-20T05:14:11.116Z,100828.22
2018-07-20T05:16:40.843Z,100828.62
2018-07-20T05:19:10.526Z,100832.09
2018-07-20T05:21:39.900Z,100829.03
2018-07-20T05:24:09.676Z,100825.92
2018-07-20T05:26:39.349Z,100824.53
2018-07-20T05:29:09.416Z,100823.19
2018-07-20T05:31:39.075Z,100826.17
2018-07-20T05:34:08.774Z,100822.09
2018-07-20T05:36:38.465Z,100819.38
2018-07-20T05:39:10.222Z,100820.12
2018-07-20T05:41:40.039Z,100822.11
2018-07-20T05:44:09.709Z,100823.82
2018-07-20T05:46:39.421Z,100816.34
2018-07-20T05:49:09.206Z,100821.78
2018-07-20T05:51:38.886Z,100822.49
2018-07-20T05:54:08.796Z,100824.06
2018-07-20T05:56:38.537Z,100820.84
2018-07-20T05:59:08.409Z,100818.56
2018-07-20T06:01:37.853Z,100818.42
2018-07-20T06:04:07.909Z,100815.52
2018-07-20T06:06:37.577Z,100811.31
2018-07-20T06:09:12.220Z,100812.78
2018-07-20T06:11:41.893Z,100812.66
2018-07-20T06:14:11.526Z,100806.11
2018-07-20T06:16:41.193Z,100811.23
2018-07-20T06:19:10.945Z,100811.66
2018-07-20T06:21:40.670Z,100812.97
2018-07-20T06:24:10.375Z,100810.73
2018-07-20T06:26:40.254Z,100803.52
2018-07-20T06:29:09.957Z,100803.52
2018-07-20T06:31:39.646Z,100811.91
2018-07-20T06:34:09.293Z,100807.06
2018-07-20T06:36:38.995Z,100810.91
2018-07-20T06:39:11.610Z,100815.27
2018-07-20T06:41:41.624Z,100806.81
2018-07-20T06:44:11.452Z,100807.08
2018-07-20T06:46:41.142Z,100803.43
2018-07-20T06:49:10.883Z,100804.81
2018-07-20T06:51:40.567Z,100803.91
2018-07-20T06:54:09.999Z,100803.43
2018-07-20T06:56:39.661Z,100800.45
2018-07-20T06:59:09.413Z,100803.50
2018-07-20T07:01:39.213Z,100803.49
2018-07-20T07:04:09.210Z,100811.83
2018-07-20T07:06:38.907Z,100806.04
2018-07-20T07:09:10.081Z,100812.86
2018-07-20T07:11:40.504Z,100806.33
2018-07-20T07:14:10.212Z,100810.03
2018-07-20T07:16:40.059Z,100805.16
2018-07-20T07:19:09.754Z,100804.76
2018-07-20T07:21:39.590Z,100806.25
2018-07-20T07:24:09.537Z,100805.42
2018-07-20T07:26:40.317Z,100802.50
2018-07-20T07:29:10.611Z,100796.71
2018-07-20T07:31:40.460Z,100798.02
2018-07-20T07:34:10.225Z,100796.95
2018-07-20T07:36:40.082Z,100791.74
2018-07-20T07:39:12.047Z,100798.70
2018-07-20T07:41:42.060Z,100793.92
2018-07-20T07:44:11.747Z,100795.53
2018-07-20T07:46:41.414Z,100792.88
2018-07-20T07:49:11.176Z,100790.06
2018-07-20T07:51:40.888Z,100797.05
2018-07-20T07:54:11.358Z,100791.30
2018-07-20T07:56:41.096Z,100800.19
2018-07-20T07:59:11.091Z,100798.91
2018-07-20T08:01:41.075Z,100794.95
2018-07-20T08:04:10.897Z,100800.27
2018-07-20T08:06:40.715Z,100792.73
2018-07-20T08:09:12.889Z,100795.12
2018-07-20T08:11:43.426Z,100792.50
2018-07-20T08:14:13.802Z,100787.64
2018-07-20T08:16:44.156Z,100780.78
2018-07-20T08:19:14.748Z,100778.63
2018-07-20T08:21:44.706Z,100775.63
2018-07-20T08:24:14.480Z,100776.50
2018-07-20T08:26:44.178Z,100774.59
2018-07-20T08:29:13.949Z,100774.64
2018-07-20T08:31:43.664Z,100777.36
2018-07-20T08:34:13.334Z,100771.09
2018-07-20T08:36:43.089Z,100774.25
2018-07-20T08:39:12.799Z,100776.20
2018-07-20T08:41:43.217Z,100776.77
2018-07-20T08:44:12.781Z,100765.42
2018-07-20T08:46:43.247Z,100770.46
2018-07-20T08:49:12.826Z,100761.25
2018-07-20T08:51:42.593Z,100760.06
2018-07-20T08:54:12.401Z,100757.06
2018-07-20T08:56:41.876Z,100755.71
2018-07-20T08:59:11.682Z,100761.47
2018-07-20T09:01:41.505Z,100761.89
2018-07-20T09:04:11.273Z,100759.67
2018-07-20T09:06:42.261Z,100755.89
2018-07-20T09:09:12.008Z,100759.55
2018-07-20T09:11:41.834Z,100758.73
2018-07-20T09:14:11.737Z,100757.48
2018-07-20T09:16:41.482Z,100748.45
2018-07-20T09:19:11.409Z,100754.81
2018-07-20T09:21:41.209Z,100752.44
2018-07-20T09:24:10.973Z,100746.03
2018-07-20T09:26:40.910Z,100747.38
2018-07-20T09:29:10.628Z,100748.21
2018-07-20T09:31:40.141Z,100753.09
2018-07-20T09:34:10.052Z,100745.59
2018-07-20T09:36:39.932Z,100753.34
2018-07-20T09:39:11.513Z,100755.27
2018-07-20T09:41:41.997Z,100745.65
2018-07-20T09:44:12.459Z,100746.80
2018-07-20T09:46:42.112Z,100743.06
2018-07-20T09:49:11.905Z,100742.84
2018-07-20T09:51:42.353Z,100737.12
2018-07-20T09:54:12.405Z,100733.39
2018-07-20T09:56:42.619Z,100738.86
2018-07-20T09:59:12.497Z,100730.92
2018-07-20T10:01:42.225Z,100730.61
2018-07-20T10:04:11.967Z,100724.11
2018-07-20T10:06:41.742Z,100734.06
2018-07-20T10:09:12.834Z,100724.34
2018-07-20T10:11:42.600Z,100722.40
2018-07-20T10:14:12.265Z,100722.63
2018-07-20T10:16:42.969Z,100720.28
2018-07-20T10:19:12.944Z,100718.84
2018-07-20T10:21:42.604Z,100713.68
2018-07-20T10:24:12.412Z,100719.59
2018-07-20T10:26:41.741Z,100720.50
2018-07-20T10:29:11.455Z,100714.81
2018-07-20T10:31:41.231Z,100708.08
2018-07-20T10:34:11.558Z,100711.18
2018-07-20T10:36:41.490Z,100712.13
2018-07-20T10:39:11.636Z,100707.64
2018-07-20T10:41:41.347Z,100699.18
2018-07-20T10:44:11.139Z,100700.02
2018-07-20T10:46:40.932Z,100702.67
2018-07-20T10:49:10.645Z,100696.80
2018-07-20T10:51:40.372Z,100697.33
2018-07-20T10:54:10.074Z,100697.30
2018-07-20T10:56:40.073Z,100693.56
2018-07-20T10:59:09.772Z,100696.14
2018-07-20T11:01:39.582Z,100690.91
2018-07-20T11:04:09.649Z,100686.59
2018-07-20T11:06:39.345Z,100689.64
2018-07-20T11:09:09.682Z,100682.45
2018-07-20T11:11:39.425Z,100683.92
2018-07-20T11:14:09.490Z,100683.77
2018-07-20T11:16:39.143Z,100681.33
2018-07-20T11:19:09.412Z,100680.38
2018-07-20T11:21:39.093Z,100674.97
2018-07-20T11:24:08.878Z,100672.31
2018-07-20T11:26:38.584Z,100667.63
2018-07-20T11:29:08.260Z,100661.50
2018-07-20T11:31:38.091Z,100658.97
2018-07-20T11:34:08.146Z,100663.08
2018-07-20T11:36:37.839Z,100657.55
2018-07-20T11:39:09.733Z,100662.45
2018-07-20T11:41:39.972Z,100658.91
2018-07-20T11:44:09.948Z,100651.67
2018-07-20T11:46:39.604Z,100650.61
2018-07-20T11:49:09.324Z,100654.49
2018-07-20T11:51:39.002Z,100645.60
2018-07-20T11:54:08.991Z,100641.66
2018-07-20T11:56:38.753Z,100638.08
2018-07-20T11:59:08.501Z,100637.09
2018-07-20T12:01:38.193Z,100634.53
2018-07-20T12:04:07.640Z,100639.75
2018-07-20T12:06:37.318Z,100634.52
2018-07-20T12:09:10.897Z,100629.37
2018-07-20T12:11:41.077Z,100620.58
2018-07-20T12:14:10.754Z,100618.61
2018-07-20T12:16:40.700Z,100617.58
2018-07-20T12:19:10.367Z,100619.05
2018-07-20T12:21:40.030Z,100619.49
2018-07-20T12:24:09.789Z,100614.16
2018-07-20T12:26:39.458Z,100612.62
2018-07-20T12:29:09.134Z,100614.27
2018-07-20T12:31:38.832Z,100608.40
2018-07-20T12:34:08.656Z,100610.91
2018-07-20T12:36:38.338Z,100601.37
2018-07-20T12:39:10.689Z,100605.14
2018-07-20T12:41:40.907Z,100605.69
2018-07-20T12:44:10.605Z,100599.20
2018-07-20T12:46:40.109Z,100601.17
2018-07-20T12:49:09.852Z,100594.19
2018-07-20T12:51:39.595Z,100590.96
2018-07-20T12:54:09.389Z,100588.33
2018-07-20T12:56:39.901Z,100592.63
2018-07-20T12:59:09.328Z,100597.74
2018-07-20T13:01:39.044Z,100588.00
2018-07-20T13:04:08.862Z,100586.30
2018-07-20T13:06:38.568Z,100580.95
2018-07-20T13:09:11.210Z,100582.23
2018-07-20T13:11:41.160Z,100577.69
2018-07-20T13:14:11.784Z,100579.17
2018-07-20T13:16:42.174Z,100574.41
2018-07-20T13:19:12.131Z,100573.20
2018-07-20T13:21:41.847Z,100572.59
2018-07-20T13:24:11.534Z,100568.63
2018-07-20T13:26:41.304Z,100569.73
2018-07-20T13:29:11.080Z,100575.11
2018-07-20T13:31:40.833Z,100570.48
2018-07-20T13:34:10.549Z,100567.48
2018-07-20T13:36:40.261Z,100561.06
2018-07-20T13:39:11.726Z,100560.83
2018-07-20T13:41:41.961Z,100560.79
2018-07-20T13:44:11.662Z,100554.12
2018-07-20T13:46:41.381Z,100548.05
2018-07-20T13:49:11.181Z,100553.22
2018-07-20T13:51:40.862Z,100542.18
2018-07-20T13:54:10.548Z,100546.80
2018-07-20T13:56:40.268Z,100547.00
2018-07-20T13:59:09.995Z,100541.11
2018-07-20T14:01:39.705Z,100535.19
2018-07-20T14:04:09.386Z,100534.20
2018-07-20T14:06:39.146Z,100528.27
2018-07-20T14:09:10.875Z,100520.12
2018-07-20T14:11:41.288Z,100517.88
2018-07-20T14:14:11.368Z,100520.55
2018-07-20T14:16:41.075Z,100520.72
2018-07-20T14:19:10.533Z,100516.73
2018-07-20T14:21:40.254Z,100508.27
2018-07-20T14:24:10.090Z,100505.88
2018-07-20T14:26:39.793Z,100500.39
2018-07-20T14:29:09.481Z,100505.48
2018-07-20T14:31:39.360Z,100505.35
2018-07-20T14:34:09.124Z,100502.14
2018-07-20T14:36:38.927Z,100500.96
2018-07-20T14:39:12.349Z,100493.54
2018-07-20T14:41:42.526Z,100501.61
2018-07-20T14:44:12.276Z,100492.70
2018-07-20T14:46:42.011Z,100487.95
2018-07-20T14:49:11.714Z,100483.59
2018-07-20T14:51:41.435Z,100477.28
2018-07-20T14:54:11.190Z,100479.33
2018-07-20T14:56:40.907Z,100476.66
2018-07-20T14:59:10.869Z,100476.70
2018-07-20T15:01:40.673Z,100473.88
2018-07-20T15:04:10.453Z,100471.17
2018-07-20T15:06:40.734Z,100467.45
2018-07-20T15:09:12.598Z,100463.20
2018-07-20T15:11:42.569Z,100460.16
2018-07-20T15:14:12.334Z,100467.03
2018-07-20T15:16:42.121Z,100461.25
2018-07-20T15:19:11.830Z,100463.27
2018-07-20T15:21:41.591Z,100459.41
2018-07-20T15:24:11.308Z,100452.66
2018-07-20T15:26:41.061Z,100465.28
2018-07-20T15:29:10.730Z,100457.55
2018-07-20T15:31:40.442Z,100456.23
2018-07-20T15:34:10.214Z,100450.73
2018-07-20T15:36:40.078Z,100451.14
2018-07-20T15:39:11.645Z,100456.39
2018-07-20T15:41:41.633Z,100456.19
2018-07-20T15:44:11.001Z,100447.84
2018-07-20T15:46:40.682Z,100444.13
2018-07-20T15:49:10.366Z,100445.36
2018-07-20T15:53:35.205Z,100444.88
2018-07-20T15:54:09.683Z,100442.99
2018-07-20T15:56:39.545Z,100440.19
2018-07-20T15:59:09.271Z,100434.66
2018-07-20T16:01:39.018Z,100439.20
2018-07-20T16:04:09.092Z,100438.98
2018-07-20T16:06:38.905Z,100431.30
2018-07-20T16:09:11.985Z,100438.68
2018-07-20T16:11:41.825Z,100435.98
2018-07-20T16:14:11.537Z,100438.67
2018-07-20T16:16:41.240Z,100430.56
2018-07-20T16:19:10.981Z,100431.55
2018-07-20T16:21:40.897Z,100429.09
2018-07-20T16:24:10.661Z,100431.02
2018-07-20T16:26:40.518Z,100429.08
2018-07-20T16:29:10.338Z,100419.57
2018-07-20T16:31:40.088Z,100423.81
2018-07-20T16:34:09.874Z,100422.70
2018-07-20T16:36:39.768Z,100422.11
2018-07-20T16:39:11.255Z,100419.70
2018-07-20T16:41:41.017Z,100416.80
2018-07-20T16:44:10.741Z,100410.97
2018-07-20T16:46:40.553Z,100415.40
2018-07-20T16:49:10.349Z,100419.08
2018-07-20T16:51:40.364Z,100410.77
2018-07-20T16:54:10.447Z,100413.55
2018-07-20T16:56:40.997Z,100410.52
2018-07-20T16:59:11.149Z,100411.22
2018-07-20T17:01:40.812Z,100406.99
2018-07-20T17:04:10.737Z,100402.22
2018-07-20T17:06:40.540Z,100409.27
2018-07-20T17:09:11.886Z,100417.69
2018-07-20T17:11:42.035Z,100411.77
2018-07-20T17:14:11.788Z,100413.56
2018-07-20T17:16:41.571Z,100416.07
2018-07-20T17:19:11.321Z,100410.96
2018-07-20T17:21:41.603Z,100418.45
2018-07-20T17:24:11.509Z,100413.31
2018-07-20T17:26:41.229Z,100416.44
2018-07-20T17:29:10.972Z,100413.46
2018-07-20T17:31:40.849Z,100413.20
2018-07-20T17:34:11.968Z,100414.77
2018-07-20T17:36:41.774Z,100414.17
2018-07-20T17:39:12.736Z,100420.31
2018-07-20T17:41:42.682Z,100420.64
2018-07-20T17:44:13.034Z,100420.40
2018-07-20T17:46:42.999Z,100424.50
2018-07-20T17:49:13.698Z,100418.58
2018-07-20T17:51:43.390Z,100411.91
2018-07-20T17:54:13.269Z,100417.92
2018-07-20T17:56:43.193Z,100423.56
2018-07-20T17:59:12.965Z,100425.45
2018-07-20T18:01:43.313Z,100428.88
2018-07-20T18:04:13.040Z,100433.77
2018-07-20T18:06:42.805Z,100431.28
2018-07-20T18:09:12.517Z,100434.59
2018-07-20T18:11:42.300Z,100440.31
2018-07-20T18:14:12.060Z,100440.73
2018-07-20T18:16:41.817Z,100451.06
2018-07-20T18:19:11.591Z,100456.19
2018-07-20T18:21:41.310Z,100458.14
2018-07-20T18:24:10.710Z,100470.42
2018-07-20T18:26:40.414Z,100470.15
2018-07-20T18:29:10.098Z,100474.50
2018-07-20T18:31:39.859Z,100468.10
2018-07-20T18:34:09.648Z,100474.11
2018-07-20T18:36:39.372Z,100477.48
2018-07-20T18:39:11.828Z,100466.28
2018-07-20T18:41:42.015Z,100460.06
2018-07-20T18:44:11.716Z,100457.81
2018-07-20T18:46:41.395Z,100453.33
2018-07-20T18:49:11.171Z,100446.58
2018-07-20T18:51:40.960Z,100446.02
2018-07-20T18:54:10.770Z,100446.85
2018-07-20T18:56:40.471Z,100442.98
2018-07-20T18:59:10.234Z,100441.91
2018-07-20T19:01:40.006Z,100435.16
2018-07-20T19:04:09.749Z,100441.30
2018-07-20T19:06:39.506Z,100439.75
2018-07-20T19:09:11.536Z,100443.61
2018-07-20T19:11:41.537Z,100432.92
2018-07-20T19:14:11.278Z,100433.61
2018-07-20T19:16:41.123Z,100427.47
2018-07-20T19:19:10.817Z,100438.39
2018-07-20T19:21:40.618Z,100439.75
2018-07-20T19:24:10.472Z,100440.09
2018-07-20T19:26:40.358Z,100443.75
2018-07-20T19:29:10.061Z,100448.48
2018-07-20T19:31:39.774Z,100446.91
2018-07-20T19:34:09.827Z,100452.12
2018-07-20T19:36:39.562Z,100455.91
2018-07-20T19:39:10.944Z,100454.89
2018-07-20T19:41:41.276Z,100458.96
2018-07-20T19:44:10.968Z,100461.05
2018-07-20T19:46:41.318Z,100458.28
2018-07-20T19:49:11.088Z,100462.11
2018-07-20T19:51:40.882Z,100464.13
2018-07-20T19:54:10.659Z,100466.67
2018-07-20T19:56:40.462Z,100471.66
2018-07-20T19:59:10.290Z,100474.20
2018-07-20T20:01:40.086Z,100476.09
2018-07-20T20:04:09.783Z,100471.83
2018-07-20T20:06:39.345Z,100467.77
2018-07-20T20:09:11.032Z,100475.86
2018-07-20T20:11:40.715Z,100472.69
2018-07-20T20:14:10.537Z,100478.89
2018-07-20T20:16:40.206Z,100470.61
2018-07-20T20:19:09.913Z,100475.73
2018-07-20T20:21:39.681Z,100472.49
2018-07-20T20:24:09.417Z,100470.83
2018-07-20T20:26:39.289Z,100465.64
2018-07-20T20:29:08.962Z,100470.44
2018-07-20T20:31:38.797Z,100465.10
2018-07-20T20:34:08.517Z,100466.39
2018-07-20T20:36:38.859Z,100460.00
2018-07-20T20:39:12.181Z,100463.83
2018-07-20T20:41:42.223Z,100459.62
2018-07-20T20:44:12.551Z,100464.31
2018-07-20T20:46:42.250Z,100462.42
2018-07-20T20:49:12.060Z,100463.28
2018-07-20T20:51:41.924Z,100458.58
2018-07-20T20:54:11.656Z,100461.01
2018-07-20T20:56:41.403Z,100460.01
2018-07-20T20:59:11.184Z,100453.27
2018-07-20T21:01:40.882Z,100455.14
2018-07-20T21:04:10.609Z,100455.77
2018-07-20T21:06:40.281Z,100451.03
2018-07-20T21:09:10.483Z,100452.01
2018-07-20T21:11:40.383Z,100458.48
2018-07-20T21:14:10.037Z,100455.67
2018-07-20T21:16:39.491Z,100459.09
2018-07-20T21:19:09.210Z,100457.14
2018-07-20T21:21:38.898Z,100462.44
2018-07-20T21:24:08.939Z,100453.84
2018-07-20T21:26:38.883Z,100451.28
2018-07-20T21:29:08.624Z,100457.25
2018-07-20T21:31:38.373Z,100448.75
2018-07-20T21:34:08.329Z,100443.45
2018-07-20T21:36:38.081Z,100452.25
2018-07-20T21:39:11.769Z,100449.25
2018-07-20T21:41:43.335Z,100456.69
2018-07-20T21:44:15.139Z,100450.22
2018-07-20T21:46:44.814Z,100461.69
2018-07-20T21:49:14.554Z,100459.16
2018-07-20T21:51:44.800Z,100461.12
2018-07-20T21:54:14.502Z,100460.01
2018-07-20T21:56:44.272Z,100457.55
2018-07-20T21:59:13.945Z,100457.22
2018-07-20T22:01:43.735Z,100457.83
2018-07-20T22:04:13.506Z,100459.47
2018-07-20T22:06:43.319Z,100462.23
2018-07-20T22:09:13.222Z,100469.16
2018-07-20T22:11:42.923Z,100471.14
2018-07-20T22:14:12.585Z,100475.92
2018-07-20T22:16:42.397Z,100473.08
2018-07-20T22:19:12.183Z,100471.46
2018-07-20T22:21:42.025Z,100462.67
2018-07-20T22:24:11.849Z,100467.20
2018-07-20T22:26:41.661Z,100470.34
2018-07-20T22:29:11.350Z,100467.77
2018-07-20T22:31:41.477Z,100461.72
2018-07-20T22:34:12.166Z,100455.15
2018-07-20T22:36:42.036Z,100454.82
2018-07-20T22:39:13.392Z,100453.17
2018-07-20T22:41:43.193Z,100453.06
2018-07-20T22:44:12.909Z,100446.66
2018-07-20T22:46:42.633Z,100449.93
2018-07-20T22:49:12.409Z,100441.34
2018-07-20T22:51:42.269Z,100445.11
2018-07-20T22:54:11.912Z,100451.02
2018-07-20T22:56:41.410Z,100449.20
2018-07-20T22:59:11.106Z,100445.24
2018-07-20T23:01:40.793Z,100450.39
2018-07-20T23:04:10.548Z,100453.69
2018-07-20T23:06:39.997Z,100458.64
2018-07-20T23:09:10.845Z,100445.50
2018-07-20T23:11:40.979Z,100451.73
2018-07-20T23:14:10.824Z,100445.20
2018-07-20T23:16:40.784Z,100447.88
2018-07-20T23:19:10.504Z,100446.75
2018-07-20T23:21:40.246Z,100447.67
2018-07-20T23:24:09.989Z,100450.02
2018-07-20T23:26:39.674Z,100450.48
2018-07-20T23:29:09.415Z,100448.49
2018-07-20T23:31:39.088Z,100445.48
2018-07-20T23:34:09.020Z,100440.67
2018-07-20T23:36:38.881Z,100441.69
2018-07-20T23:39:10.241Z,100438.34
2018-07-20T23:41:39.717Z,100441.20
2018-07-20T23:44:09.717Z,100439.11
2018-07-20T23:46:39.553Z,100434.84
2018-07-20T23:49:09.240Z,100435.77
2018-07-20T23:51:38.900Z,100430.09
2018-07-20T23:54:09.590Z,100427.55
2018-07-20T23:56:39.855Z,100425.83
2018-07-20T23:59:10.109Z,100429.81
